createdAt,value
2018-08-07T00:00:19.715Z,15.80
2018-08-07T00:02:49.254Z,17.20
2018-08-07T00:05:18.430Z,16.70
2018-08-07T00:07:47.574Z,15.10
2018-08-07T00:10:18.969Z,16.10
2018-08-07T00:12:46.875Z,15.17
2018-08-07T00:15:14.773Z,17.20
2018-08-07T00:17:43.926Z,15.90
2018-08-07T00:20:13.828Z,16.23
2018-08-07T00:22:42.132Z,17.60
2018-08-07T00:25:10.731Z,17.43
2018-08-07T00:27:39.503Z,15.37
2018-08-07T00:30:09.493Z,16.67
2018-08-07T00:32:37.930Z,17.30
2018-08-07T00:35:08.341Z,17.60
2018-08-07T00:37:36.796Z,18.50
2018-08-07T00:40:05.392Z,16.90
2018-08-07T00:42:33.588Z,17.33
2018-08-07T00:45:02.005Z,16.57
2018-08-07T00:47:30.754Z,16.20
2018-08-07T00:49:58.661Z,16.30
2018-08-07T00:52:27.076Z,18.80
2018-08-07T00:54:54.903Z,18.07
2018-08-07T00:57:22.980Z,18.10
2018-08-07T00:59:51.182Z,19.30
2018-08-07T01:02:19.055Z,18.00
2018-08-07T01:04:47.698Z,16.90
2018-08-07T01:07:16.094Z,16.97
2018-08-07T01:09:43.988Z,17.17
2018-08-07T01:12:12.035Z,16.43
2018-08-07T01:14:40.113Z,16.87
2018-08-07T01:17:08.335Z,17.50
2018-08-07T01:19:36.141Z,17.92
2018-08-07T01:22:04.041Z,17.80
2018-08-07T01:24:32.095Z,17.92
2018-08-07T01:27:02.228Z,17.80
2018-08-07T01:29:30.078Z,17.20
2018-08-07T01:31:58.628Z,18.20
2018-08-07T01:34:26.514Z,15.95
2018-08-07T01:36:55.502Z,16.75
2018-08-07T01:39:23.734Z,17.95
2018-08-07T01:41:51.901Z,18.10
2018-08-07T01:44:20.314Z,19.30
2018-08-07T01:46:48.799Z,18.75
2018-08-07T01:49:16.636Z,19.23
2018-08-07T01:51:44.738Z,19.52
2018-08-07T01:54:12.818Z,17.23
2018-08-07T01:56:40.922Z,16.67
2018-08-07T01:59:09.039Z,17.70
2018-08-07T02:01:39.525Z,17.32
2018-08-07T02:04:07.307Z,17.62
2018-08-07T02:06:35.097Z,17.42
2018-08-07T02:09:03.277Z,18.85
2018-08-07T02:11:31.056Z,17.52
2018-08-07T02:13:58.873Z,16.85
2018-08-07T02:16:26.883Z,17.07
2018-08-07T02:18:54.898Z,17.70
2018-08-07T02:21:22.921Z,16.95
2018-08-07T02:23:50.700Z,16.15
2018-08-07T02:26:20.073Z,17.27
2018-08-07T02:28:47.941Z,16.90
2018-08-07T02:31:15.897Z,17.80
2018-08-07T02:33:43.914Z,16.50
2018-08-07T02:36:14.495Z,16.75
2018-08-07T02:38:42.285Z,16.52
2018-08-07T02:41:10.422Z,17.55
2018-08-07T02:43:38.802Z,16.82
2018-08-07T02:46:08.102Z,17.20
2018-08-07T02:48:39.413Z,16.93
2018-08-07T02:51:07.630Z,16.15
2018-08-07T02:53:35.735Z,17.85
2018-08-07T02:56:04.305Z,16.52
2018-08-07T02:58:32.661Z,16.87
2018-08-07T03:01:00.589Z,17.30
2018-08-07T03:03:28.642Z,18.82
2018-08-07T03:05:56.428Z,18.45
2018-08-07T03:08:24.206Z,17.85
2018-08-07T03:10:52.090Z,17.17
2018-08-07T03:13:20.223Z,18.30
2018-08-07T03:15:48.323Z,17.70
2018-08-07T03:18:16.487Z,16.23
2018-08-07T03:20:44.402Z,17.87
2018-08-07T03:23:12.436Z,17.98
2018-08-07T03:25:40.277Z,17.57
2018-08-07T03:28:08.133Z,17.52
2018-08-07T03:30:36.609Z,16.70
2018-08-07T03:33:05.106Z,18.40
2018-08-07T03:35:33.166Z,19.17
2018-08-07T03:38:01.529Z,19.35
2018-08-07T03:40:29.546Z,19.42
2018-08-07T03:42:57.751Z,20.52
2018-08-07T03:45:25.998Z,19.10
2018-08-07T03:47:53.905Z,20.23
2018-08-07T03:50:21.669Z,19.95
2018-08-07T03:52:49.739Z,21.17
2018-08-07T03:55:18.832Z,19.52
2018-08-07T03:57:47.638Z,20.25
2018-08-07T04:00:21.162Z,21.80
2018-08-07T04:02:49.509Z,21.17
2018-08-07T04:05:20.707Z,21.93
2018-08-07T04:07:49.551Z,22.15
2018-08-07T04:10:18.410Z,23.07
2018-08-07T04:12:46.562Z,21.90
2018-08-07T04:15:16.628Z,23.00
2018-08-07T04:17:46.249Z,20.25
2018-08-07T04:20:16.165Z,22.67
2018-08-07T04:22:44.427Z,22.22
2018-08-07T04:25:12.296Z,21.45
2018-08-07T04:27:40.813Z,22.07
2018-08-07T04:30:14.247Z,21.85
2018-08-07T04:32:42.849Z,22.50
2018-08-07T04:35:10.921Z,21.65
2018-08-07T04:37:38.837Z,23.80
2018-08-07T04:40:07.949Z,20.92
2018-08-07T04:42:36.633Z,21.50
2018-08-07T04:45:08.010Z,20.50
2018-08-07T04:47:35.841Z,22.67
2018-08-07T04:50:04.509Z,19.98
2018-08-07T04:52:32.341Z,21.40
2018-08-07T04:55:00.384Z,20.52
2018-08-07T04:57:29.463Z,21.02
2018-08-07T04:59:57.364Z,19.83
2018-08-07T05:02:25.827Z,17.67
2018-08-07T05:04:53.777Z,18.27
2018-08-07T05:07:22.099Z,19.23
2018-08-07T05:09:50.528Z,18.45
2018-08-07T05:12:18.717Z,17.30
2018-08-07T05:14:47.527Z,16.77
2018-08-07T05:17:15.897Z,19.15
2018-08-07T05:19:44.767Z,18.47
2018-08-07T05:22:13.135Z,17.70
2018-08-07T05:24:41.290Z,17.62
2018-08-07T05:27:09.177Z,19.10
2018-08-07T05:29:37.697Z,19.30
2018-08-07T05:32:05.484Z,20.77
2018-08-07T05:34:33.762Z,19.47
2018-08-07T05:37:01.806Z,20.30
2018-08-07T05:39:29.915Z,20.53
2018-08-07T05:41:57.974Z,18.73
2018-08-07T05:44:26.009Z,20.30
2018-08-07T05:46:54.190Z,19.53
2018-08-07T05:49:22.212Z,19.87
2018-08-07T05:51:50.382Z,18.83
2018-08-07T05:54:21.800Z,18.97
2018-08-07T05:56:50.096Z,18.87
2018-08-07T05:59:18.190Z,20.00
2018-08-07T06:01:46.290Z,20.80
2018-08-07T06:04:15.209Z,21.60
2018-08-07T06:06:43.458Z,19.70
2018-08-07T06:09:12.030Z,21.10
2018-08-07T06:11:40.102Z,21.30
2018-08-07T06:14:08.013Z,20.40
2018-08-07T06:16:36.037Z,20.03
2018-08-07T06:19:04.717Z,21.17
2018-08-07T06:21:32.694Z,20.27
2018-08-07T06:24:00.894Z,19.00
2018-08-07T06:26:28.685Z,19.73
2018-08-07T06:29:01.130Z,20.40
2018-08-07T06:31:28.939Z,19.03
2018-08-07T06:33:57.033Z,17.70
2018-08-07T06:36:25.079Z,18.83
2018-08-07T06:38:53.117Z,20.93
2018-08-07T06:41:21.553Z,20.90
2018-08-07T06:43:49.625Z,20.07
2018-08-07T06:46:17.470Z,19.07
2018-08-07T06:48:45.683Z,20.27
2018-08-07T06:51:13.838Z,20.10
2018-08-07T06:53:41.854Z,19.70
2018-08-07T06:56:09.793Z,20.77
2018-08-07T06:58:37.645Z,20.90
2018-08-07T07:01:05.441Z,21.50
2018-08-07T07:03:33.382Z,22.67
2018-08-07T07:06:01.202Z,23.50
2018-08-07T07:08:29.405Z,23.17
2018-08-07T07:10:57.885Z,20.73
2018-08-07T07:13:25.663Z,21.33
2018-08-07T07:15:53.860Z,20.57
2018-08-07T07:18:22.058Z,20.40
2018-08-07T07:20:50.208Z,20.13
2018-08-07T07:23:18.094Z,20.40
2018-08-07T07:25:46.650Z,21.03
2018-08-07T07:28:14.693Z,22.53
2018-08-07T07:30:42.742Z,20.60
2018-08-07T07:33:10.553Z,21.87
2018-08-07T07:35:38.510Z,20.17
2018-08-07T07:38:06.584Z,20.73
2018-08-07T07:40:35.612Z,18.80
2018-08-07T07:43:03.733Z,19.77
2018-08-07T07:45:31.746Z,18.60
2018-08-07T07:47:59.839Z,17.90
2018-08-07T07:50:27.649Z,19.30
2018-08-07T07:52:55.479Z,18.47
2018-08-07T07:55:23.521Z,17.67
2018-08-07T07:57:51.585Z,17.90
2018-08-07T08:00:22.417Z,18.07
2018-08-07T08:02:50.945Z,16.90
2018-08-07T08:05:21.258Z,17.87
2018-08-07T08:07:48.942Z,17.73
2018-08-07T08:10:17.034Z,16.20
2018-08-07T08:12:45.130Z,17.23
2018-08-07T08:15:15.490Z,18.30
2018-08-07T08:17:44.623Z,16.30
2018-08-07T08:20:15.582Z,16.63
2018-08-07T08:22:45.445Z,15.33
2018-08-07T08:25:13.322Z,14.57
2018-08-07T08:27:41.570Z,16.40
2018-08-07T08:30:10.962Z,15.77
2018-08-07T08:32:40.111Z,17.33
2018-08-07T08:35:10.418Z,17.20
2018-08-07T08:37:39.154Z,15.30
2018-08-07T08:40:07.921Z,16.37
2018-08-07T08:42:36.977Z,14.37
2018-08-07T08:45:07.238Z,16.37
2018-08-07T08:47:34.997Z,15.30
2018-08-07T08:50:03.529Z,13.00
2018-08-07T08:52:31.817Z,13.40
2018-08-07T08:55:00.069Z,13.30
2018-08-07T08:57:28.085Z,12.20
2018-08-07T08:59:56.198Z,13.60
2018-08-07T09:02:24.214Z,12.30
2018-08-07T09:04:52.427Z,12.73
2018-08-07T09:07:20.462Z,12.60
2018-08-07T09:09:48.595Z,11.63
2018-08-07T09:12:16.994Z,11.73
2018-08-07T09:14:46.198Z,12.07
2018-08-07T09:17:14.398Z,11.77
2018-08-07T09:19:42.891Z,10.53
2018-08-07T09:22:11.096Z,10.70
2018-08-07T09:24:39.170Z,11.30
2018-08-07T09:27:07.413Z,10.60
2018-08-07T09:29:35.229Z,10.57
2018-08-07T09:32:04.542Z,9.27
2018-08-07T09:34:32.590Z,9.30
2018-08-07T09:37:00.718Z,10.00
2018-08-07T09:39:28.869Z,10.83
2018-08-07T09:41:57.657Z,10.37
2018-08-07T09:44:26.571Z,9.73
2018-08-07T09:46:54.667Z,10.13
2018-08-07T09:49:22.684Z,10.20
2018-08-07T09:51:50.734Z,9.10
2018-08-07T09:54:18.669Z,8.47
2018-08-07T09:56:46.727Z,8.30
2018-08-07T09:59:15.198Z,8.07
2018-08-07T10:01:48.541Z,10.20
2018-08-07T10:04:16.988Z,9.00
2018-08-07T10:06:45.130Z,7.80
2018-08-07T10:09:12.953Z,7.50
2018-08-07T10:11:41.078Z,7.63
2018-08-07T10:14:09.163Z,8.43
2018-08-07T10:16:37.369Z,9.37
2018-08-07T10:19:05.469Z,10.33
2018-08-07T10:21:33.536Z,8.20
2018-08-07T10:24:01.635Z,8.43
2018-08-07T10:26:29.670Z,8.83
2018-08-07T10:28:57.830Z,8.77
2018-08-07T10:31:26.029Z,8.00
2018-08-07T10:33:57.411Z,8.07
2018-08-07T10:36:25.442Z,8.20
2018-08-07T10:38:53.534Z,8.40
